Terminal Aerodrome Forecast
Issued by NWS La Crosse, WI

Home | Current Version | Previous Version | Text Only | Print | Product List | Glossary On
Versions: 1 2 3 4 5 6 7 8 9 10 11 12 13 14 15 16 17 18 19 20 21 22 23 24 25 26 27 28 29 30 31 32
000
FTUS43 KARX 120929 AAB
TAFLSE
TAF AMD
KLSE 120929Z 1209/1306 27010KT P6SM -SN SCT025 BKN040
     FM121030 31011KT P6SM BKN045
     FM121500 32015G25KT P6SM SCT030
     FM130100 33010KT P6SM SKC=

USA.gov is the U.S. government's official web portal to all federal, state and local government web resources and services.